Time;durP1;ratioP1;P1;durP2;ratioP2;P2;SDS_P1;SDS_P2;PMS_P1;PMS_P2;Temp;Humidity;BMP_temperature;BMP_pressure;BME280_temperature;BME280_humidity;BME280_pressure;Samples;Min_cycle;Max_cycle;Signal;HPM_P1;HPM_P2
2023/05/23 00:00:59;;;;;;;17.52;10.80;;;;;;;;;;5031731;28;20124;-82
2023/05/23 00:03:26;;;;;;;15.50;10.82;;;;;;;;;;5031704;28;20046;-83
2023/05/23 00:05:55;;;;;;;16.73;10.70;;;;;;;;;;5025805;28;20077;-83
2023/05/23 00:08:21;;;;;;;19.45;10.52;;;;;;;;;;5011500;28;20124;-83
2023/05/23 00:10:48;;;;;;;15.02;10.80;;;;;;;;;;5014229;28;20041;-84
2023/05/23 00:13:15;;;;;;;21.08;11.38;;;;;;;;;;5017037;28;20052;-83
2023/05/23 00:15:41;;;;;;;13.85;10.75;;;;;;;;;;5014727;28;20042;-83
2023/05/23 00:18:09;;;;;;;15.43;10.48;;;;;;;;;;4995796;28;20132;-85
2023/05/23 00:20:39;;;;;;;19.88;11.43;;;;;;;;;;4993751;28;20058;-84
2023/05/23 00:23:07;;;;;;;18.88;11.40;;;;;;;;;;4996019;28;20052;-84
2023/05/23 00:25:37;;;;;;;19.70;11.68;;;;;;;;;;4995237;28;20501;-81
2023/05/23 00:28:04;;;;;;;15.98;11.82;;;;;;;;;;5007539;28;20045;-85
2023/05/23 00:30:32;;;;;;;20.50;11.93;;;;;;;;;;5008066;28;20054;-82
2023/05/23 00:33:02;;;;;;;20.60;11.48;;;;;;;;;;5010963;28;20041;-84
2023/05/23 00:35:32;;;;;;;18.63;11.45;;;;;;;;;;4996595;28;20053;-83
2023/05/23 00:38:01;;;;;;;19.33;11.77;;;;;;;;;;5013237;28;20049;-83
2023/05/23 00:40:27;;;;;;;18.30;11.35;;;;;;;;;;5009519;28;20037;-86
2023/05/23 00:42:55;;;;;;;15.10;10.63;;;;;;;;;;4994224;28;20053;-85
2023/05/23 00:45:21;;;;;;;19.00;11.07;;;;;;;;;;5010762;28;20065;-86
2023/05/23 00:47:48;;;;;;;18.95;10.82;;;;;;;;;;5010657;28;20068;-87
2023/05/23 00:50:15;;;;;;;16.63;10.73;;;;;;;;;;4992766;28;20049;-83
2023/05/23 00:52:43;;;;;;;17.40;10.85;;;;;;;;;;5012440;28;20038;-83
2023/05/23 00:55:10;;;;;;;15.30;11.20;;;;;;;;;;4992991;28;20129;-85
2023/05/23 00:57:40;;;;;;;16.90;11.25;;;;;;;;;;5010822;28;20092;-85
2023/05/23 01:00:08;;;;;;;18.80;11.73;;;;;;;;;;5009354;28;20056;-85
2023/05/23 01:02:40;;;;;;;16.02;11.18;;;;;;;;;;4996721;28;20038;-84
2023/05/23 01:05:07;;;;;;;18.25;11.25;;;;;;;;;;4988990;28;20072;-84
2023/05/23 01:07:34;;;;;;;20.52;11.38;;;;;;;;;;5008577;28;20042;-85
2023/05/23 01:10:02;;;;;;;14.68;10.75;;;;;;;;;;5009532;28;20049;-84
2023/05/23 01:12:48;;;;;;;16.83;11.82;;;;;;;;;;4995830;28;20048;-85
2023/05/23 01:15:17;;;;;;;16.20;11.07;;;;;;;;;;4996058;28;20502;-85
2023/05/23 01:17:48;;;;;;;16.13;11.63;;;;;;;;;;4995322;28;20041;-84
2023/05/23 01:20:18;;;;;;;15.25;10.23;;;;;;;;;;5009772;28;20302;-84
2023/05/23 01:23:02;;;;;;;16.08;10.60;;;;;;;;;;5012169;28;20082;-85
2023/05/23 01:25:29;;;;;;;17.73;11.27;;;;;;;;;;4994570;28;20049;-85
2023/05/23 01:28:01;;;;;;;16.48;11.15;;;;;;;;;;5012382;28;20057;-88
2023/05/23 01:30:34;;;;;;;17.05;11.25;;;;;;;;;;5004395;28;20068;-87
2023/05/23 01:33:00;;;;;;;17.58;11.45;;;;;;;;;;5013982;28;20080;-86
2023/05/23 01:35:30;;;;;;;17.25;11.40;;;;;;;;;;5028272;28;20138;-87
2023/05/23 01:37:57;;;;;;;16.58;11.23;;;;;;;;;;5014286;28;20049;-86
2023/05/23 01:40:24;;;;;;;14.40;10.93;;;;;;;;;;5029038;28;20543;-86
2023/05/23 01:42:52;;;;;;;20.48;11.65;;;;;;;;;;5030315;28;20041;-87
2023/05/23 01:45:20;;;;;;;16.63;10.88;;;;;;;;;;5025246;28;20068;-86
2023/05/23 01:47:49;;;;;;;14.43;10.75;;;;;;;;;;5038992;28;20103;-86
2023/05/23 01:50:16;;;;;;;16.50;10.70;;;;;;;;;;5029052;28;20048;-86
2023/05/23 01:52:43;;;;;;;13.98;10.15;;;;;;;;;;5015228;28;20049;-86
2023/05/23 01:55:11;;;;;;;18.50;9.85;;;;;;;;;;5034903;28;20050;-85
2023/05/23 01:57:38;;;;;;;14.02;9.80;;;;;;;;;;5025025;28;20449;-86
2023/05/23 02:00:05;;;;;;;14.57;10.07;;;;;;;;;;5032097;28;20449;-85
2023/05/23 02:02:38;;;;;;;13.70;9.90;;;;;;;;;;5032855;28;20045;-86
2023/05/23 02:05:05;;;;;;;11.98;9.40;;;;;;;;;;5030376;28;20056;-85
2023/05/23 02:07:32;;;;;;;15.90;10.57;;;;;;;;;;5031309;28;20041;-84
2023/05/23 02:09:59;;;;;;;19.20;10.48;;;;;;;;;;5015702;28;20419;-85
2023/05/23 02:12:27;;;;;;;15.85;9.90;;;;;;;;;;5032784;28;20045;-85
2023/05/23 02:14:54;;;;;;;13.98;10.25;;;;;;;;;;5031708;28;20464;-85
2023/05/23 02:17:23;;;;;;;13.75;9.70;;;;;;;;;;5034083;28;20053;-86
2023/05/23 02:19:50;;;;;;;12.25;9.35;;;;;;;;;;5031439;28;20432;-85
2023/05/23 02:22:17;;;;;;;14.88;10.10;;;;;;;;;;5038577;28;20076;-85
2023/05/23 02:24:43;;;;;;;15.80;9.45;;;;;;;;;;5018052;28;21104;-84
2023/05/23 02:27:11;;;;;;;15.20;9.35;;;;;;;;;;5018581;28;20045;-85
2023/05/23 02:29:41;;;;;;;14.73;9.57;;;;;;;;;;5028759;28;20041;-86
2023/05/23 02:32:07;;;;;;;13.35;9.60;;;;;;;;;;5025237;28;20103;-86
2023/05/23 02:34:34;;;;;;;13.52;9.13;;;;;;;;;;5016446;28;20046;-84
2023/05/23 02:37:03;;;;;;;13.60;9.13;;;;;;;;;;5017759;28;20045;-85
2023/05/23 02:39:30;;;;;;;13.90;9.43;;;;;;;;;;5035903;28;20048;-84
2023/05/23 02:41:56;;;;;;;11.93;9.63;;;;;;;;;;5032320;28;20053;-84
2023/05/23 02:44:26;;;;;;;15.70;9.55;;;;;;;;;;5016330;28;20124;-84
2023/05/23 02:46:55;;;;;;;14.32;9.95;;;;;;;;;;5033493;28;20056;-83
2023/05/23 02:49:22;;;;;;;13.50;9.48;;;;;;;;;;5030496;28;20489;-85
2023/05/23 02:51:49;;;;;;;16.77;9.43;;;;;;;;;;5030956;28;20071;-83
2023/05/23 02:54:16;;;;;;;16.20;10.80;;;;;;;;;;5033674;28;20425;-85
2023/05/23 02:56:44;;;;;;;16.75;10.30;;;;;;;;;;5033216;28;20034;-85
2023/05/23 02:59:11;;;;;;;15.57;9.52;;;;;;;;;;5033328;28;20284;-85
2023/05/23 03:01:37;;;;;;;16.85;10.23;;;;;;;;;;5033776;28;20037;-85
2023/05/23 03:04:04;;;;;;;13.80;10.23;;;;;;;;;;5016059;28;20370;-85
2023/05/23 03:06:32;;;;;;;17.83;10.27;;;;;;;;;;5040033;28;20062;-86
2023/05/23 03:09:00;;;;;;;14.90;10.43;;;;;;;;;;5036700;28;20109;-86
2023/05/23 03:11:28;;;;;;;15.40;10.35;;;;;;;;;;5035879;28;20494;-86
2023/05/23 03:13:55;;;;;;;16.30;10.13;;;;;;;;;;5036395;28;20123;-86
2023/05/23 03:16:23;;;;;;;17.42;10.18;;;;;;;;;;5022727;28;20068;-84
2023/05/23 03:18:49;;;;;;;18.02;11.82;;;;;;;;;;5006712;28;20089;-86
2023/05/23 03:21:16;;;;;;;15.48;11.32;;;;;;;;;;5001819;28;20071;-85
2023/05/23 03:23:43;;;;;;;16.70;10.80;;;;;;;;;;4998138;28;20048;-85
2023/05/23 03:26:10;;;;;;;14.68;11.05;;;;;;;;;;4978778;28;20125;-85
2023/05/23 03:28:39;;;;;;;15.48;11.40;;;;;;;;;;4977807;28;20141;-85
2023/05/23 03:31:06;;;;;;;15.05;11.75;;;;;;;;;;5003431;28;20097;-85
2023/05/23 03:33:34;;;;;;;16.23;11.90;;;;;;;;;;5015628;28;20048;-83
2023/05/23 03:36:03;;;;;;;24.35;12.18;;;;;;;;;;4996983;28;20069;-83
2023/05/23 03:38:29;;;;;;;17.08;11.65;;;;;;;;;;5012992;28;20557;-84
2023/05/23 03:40:56;;;;;;;22.73;11.20;;;;;;;;;;5011981;28;20102;-83
2023/05/23 03:43:23;;;;;;;17.42;11.88;;;;;;;;;;4996924;28;20042;-84
2023/05/23 03:45:50;;;;;;;15.48;11.07;;;;;;;;;;5012771;28;20050;-84
2023/05/23 03:48:16;;;;;;;15.60;10.43;;;;;;;;;;5013498;28;20042;-83
2023/05/23 03:50:43;;;;;;;16.33;10.20;;;;;;;;;;5011625;28;20490;-83
2023/05/23 03:53:10;;;;;;;13.32;10.07;;;;;;;;;;5010594;28;20069;-83
2023/05/23 03:55:38;;;;;;;13.68;10.38;;;;;;;;;;4993445;28;20128;-83
2023/05/23 03:58:05;;;;;;;18.67;10.63;;;;;;;;;;4994732;28;20050;-83
2023/05/23 04:00:31;;;;;;;16.20;10.45;;;;;;;;;;5010833;28;20580;-80
2023/05/23 04:03:00;;;;;;;19.95;11.30;;;;;;;;;;4996555;28;20046;-83
2023/05/23 04:05:27;;;;;;;15.90;10.93;;;;;;;;;;5011148;28;20042;-82
2023/05/23 04:07:54;;;;;;;17.17;11.02;;;;;;;;;;4998271;28;20049;-80
2023/05/23 04:10:21;;;;;;;18.10;11.57;;;;;;;;;;5015313;28;20527;-83
2023/05/23 04:12:48;;;;;;;17.85;12.13;;;;;;;;;;5003354;28;20042;-81
2023/05/23 04:15:16;;;;;;;19.08;12.68;;;;;;;;;;4981994;28;20042;-82
2023/05/23 04:17:53;;;;;;;19.92;13.07;;;;;;;;;;4995654;28;20053;-82
2023/05/23 04:20:20;;;;;;;18.20;12.98;;;;;;;;;;4992611;28;20429;-82
2023/05/23 04:22:46;;;;;;;19.67;12.65;;;;;;;;;;5011523;28;20065;-83
2023/05/23 04:25:13;;;;;;;17.42;13.07;;;;;;;;;;4993673;28;20453;-84
2023/05/23 04:27:47;;;;;;;19.98;13.85;;;;;;;;;;5011218;28;20149;-83
2023/05/23 04:30:15;;;;;;;21.10;13.82;;;;;;;;;;5011426;28;20048;-80
2023/05/23 04:32:42;;;;;;;21.60;14.20;;;;;;;;;;4982673;28;20088;-84
2023/05/23 04:35:09;;;;;;;19.92;13.73;;;;;;;;;;5011088;28;20052;-83
2023/05/23 04:37:41;;;;;;;20.83;14.38;;;;;;;;;;5012731;28;20058;-82
2023/05/23 04:40:08;;;;;;;25.77;14.48;;;;;;;;;;4992838;28;20134;-82
2023/05/23 04:42:56;;;;;;;28.85;13.90;;;;;;;;;;4992998;28;20050;-83
2023/05/23 04:45:37;;;;;;;16.95;12.55;;;;;;;;;;4991590;28;20052;-86
2023/05/23 04:48:20;;;;;;;21.35;13.63;;;;;;;;;;4975001;28;20483;-80
2023/05/23 04:50:47;;;;;;;21.85;13.23;;;;;;;;;;4994757;28;20045;-80
2023/05/23 04:53:14;;;;;;;20.70;12.75;;;;;;;;;;5005273;28;20042;-86
2023/05/23 04:55:41;;;;;;;21.50;12.85;;;;;;;;;;4994392;28;20042;-81
2023/05/23 04:58:12;;;;;;;18.00;12.75;;;;;;;;;;5004580;28;20053;-81
2023/05/23 05:00:40;;;;;;;18.75;12.13;;;;;;;;;;5009118;28;20493;-80
2023/05/23 05:03:08;;;;;;;20.67;12.45;;;;;;;;;;4994262;28;20042;-84
2023/05/23 05:05:39;;;;;;;20.73;13.35;;;;;;;;;;5003648;28;20066;-82
2023/05/23 05:08:06;;;;;;;17.77;12.27;;;;;;;;;;4994928;28;20538;-82
2023/05/23 05:10:33;;;;;;;21.77;12.43;;;;;;;;;;5008943;28;20049;-83
2023/05/23 05:13:01;;;;;;;17.17;12.05;;;;;;;;;;4995893;28;20570;-84
2023/05/23 05:15:34;;;;;;;19.38;13.10;;;;;;;;;;4993116;28;20042;-82
2023/05/23 05:18:01;;;;;;;18.52;13.10;;;;;;;;;;5011006;28;20466;-85
2023/05/23 05:20:28;;;;;;;16.55;13.05;;;;;;;;;;5014100;28;20068;-84
2023/05/23 05:22:59;;;;;;;23.05;12.82;;;;;;;;;;5002413;28;20034;-84
2023/05/23 05:25:30;;;;;;;22.38;13.38;;;;;;;;;;4999527;28;20064;-85
2023/05/23 05:28:00;;;;;;;19.98;12.85;;;;;;;;;;4998135;28;20132;-84
2023/05/23 05:30:29;;;;;;;22.35;13.57;;;;;;;;;;5016444;28;20042;-84
2023/05/23 05:33:00;;;;;;;21.02;14.13;;;;;;;;;;5009285;28;20141;-82
2023/05/23 05:35:28;;;;;;;23.17;14.25;;;;;;;;;;4990269;28;20042;-85
2023/05/23 05:37:54;;;;;;;21.75;14.18;;;;;;;;;;4975603;28;20124;-82
2023/05/23 05:40:22;;;;;;;19.05;13.43;;;;;;;;;;4991650;28;20089;-83
2023/05/23 05:42:49;;;;;;;18.13;12.85;;;;;;;;;;4994528;28;20069;-83
2023/05/23 05:45:16;;;;;;;22.00;12.20;;;;;;;;;;4977470;28;20553;-84
2023/05/23 05:47:45;;;;;;;15.45;11.68;;;;;;;;;;4991958;28;20460;-82
2023/05/23 05:50:12;;;;;;;17.88;11.50;;;;;;;;;;4969442;28;20607;-80
2023/05/23 05:52:40;;;;;;;16.83;11.93;;;;;;;;;;4990633;28;20106;-83
2023/05/23 05:55:10;;;;;;;20.10;12.40;;;;;;;;;;4989575;28;20046;-84
2023/05/23 05:57:38;;;;;;;20.33;12.45;;;;;;;;;;4991871;28;20043;-82
2023/05/23 06:00:12;;;;;;;17.98;11.75;;;;;;;;;;4958936;28;20047;-82
2023/05/23 06:02:43;;;;;;;20.33;12.07;;;;;;;;;;4992227;28;20034;-84
2023/05/23 06:05:15;;;;;;;19.80;11.90;;;;;;;;;;4956602;28;20130;-84
2023/05/23 06:07:42;;;;;;;17.00;12.10;;;;;;;;;;4957710;28;20470;-84
2023/05/23 06:10:11;;;;;;;20.50;11.85;;;;;;;;;;4954932;28;20045;-80
2023/05/23 06:12:38;;;;;;;18.35;12.25;;;;;;;;;;4958190;28;20047;-85
2023/05/23 06:15:05;;;;;;;17.10;12.88;;;;;;;;;;4959059;28;20114;-85
2023/05/23 06:17:32;;;;;;;18.00;12.07;;;;;;;;;;4958201;28;20101;-83
2023/05/23 06:19:59;;;;;;;17.75;11.75;;;;;;;;;;4972700;28;20055;-80
2023/05/23 06:22:25;;;;;;;18.10;12.20;;;;;;;;;;4958280;28;20043;-82
2023/05/23 06:24:52;;;;;;;19.73;12.40;;;;;;;;;;4958450;28;20054;-85
2023/05/23 06:27:19;;;;;;;16.88;11.25;;;;;;;;;;4959713;28;20046;-82
2023/05/23 06:29:45;;;;;;;19.25;11.57;;;;;;;;;;5002961;28;20053;-84
2023/05/23 06:32:12;;;;;;;21.08;11.63;;;;;;;;;;5000996;28;20042;-81
2023/05/23 06:34:41;;;;;;;15.65;11.02;;;;;;;;;;5006006;28;20498;-83
2023/05/23 06:37:08;;;;;;;17.15;11.48;;;;;;;;;;4997233;28;20119;-83
2023/05/23 06:39:34;;;;;;;22.95;12.63;;;;;;;;;;4995442;28;20065;-84
2023/05/23 06:42:01;;;;;;;20.35;11.70;;;;;;;;;;5020642;28;20049;-83
2023/05/23 06:44:38;;;;;;;19.30;13.13;;;;;;;;;;5013026;28;20368;-84
2023/05/23 06:47:05;;;;;;;19.70;12.93;;;;;;;;;;5005206;28;20315;-85
2023/05/23 06:49:31;;;;;;;23.08;13.10;;;;;;;;;;4993416;28;20064;-84
2023/05/23 06:51:58;;;;;;;19.77;14.32;;;;;;;;;;5012273;28;20050;-84
2023/05/23 06:54:25;;;;;;;18.17;13.85;;;;;;;;;;5011397;28;20042;-81
2023/05/23 06:56:51;;;;;;;26.05;15.32;;;;;;;;;;5013363;28;20054;-82
2023/05/23 06:59:19;;;;;;;26.67;15.80;;;;;;;;;;4998488;28;20089;-81
2023/05/23 07:01:45;;;;;;;25.73;16.52;;;;;;;;;;5012606;28;20033;-82
2023/05/23 07:04:13;;;;;;;25.63;17.60;;;;;;;;;;5011131;28;20054;-82
2023/05/23 07:06:40;;;;;;;26.23;18.02;;;;;;;;;;5009210;28;20057;-82
2023/05/23 07:09:06;;;;;;;31.88;18.58;;;;;;;;;;5019151;28;20054;-84
2023/05/23 07:11:34;;;;;;;27.42;17.33;;;;;;;;;;5012335;28;20053;-84
2023/05/23 07:14:01;;;;;;;27.23;18.25;;;;;;;;;;5011744;28;20046;-85
2023/05/23 07:16:40;;;;;;;27.13;17.10;;;;;;;;;;5012178;28;20056;-85
2023/05/23 07:19:07;;;;;;;27.13;18.48;;;;;;;;;;5012446;28;20114;-82
2023/05/23 07:21:40;;;;;;;27.45;18.83;;;;;;;;;;4997023;28;20564;-84
2023/05/23 07:24:08;;;;;;;31.95;21.17;;;;;;;;;;5013312;28;20042;-82
2023/05/23 07:26:36;;;;;;;34.83;22.33;;;;;;;;;;5001773;28;20069;-83
2023/05/23 07:29:04;;;;;;;33.90;20.77;;;;;;;;;;4989165;28;20034;-81
2023/05/23 07:31:31;;;;;;;31.38;22.00;;;;;;;;;;5018352;28;20132;-82
2023/05/23 07:34:00;;;;;;;31.98;21.95;;;;;;;;;;5011322;28;20145;-85
2023/05/23 07:36:34;;;;;;;31.38;22.70;;;;;;;;;;4994073;28;20160;-84
2023/05/23 07:39:02;;;;;;;44.15;25.23;;;;;;;;;;5011855;28;20045;-79
2023/05/23 07:41:29;;;;;;;36.67;24.20;;;;;;;;;;5011359;28;20119;-82
2023/05/23 07:43:55;;;;;;;37.50;24.45;;;;;;;;;;5012756;28;20069;-86
2023/05/23 07:46:23;;;;;;;35.35;23.17;;;;;;;;;;4995398;28;20425;-86
2023/05/23 07:48:50;;;;;;;33.45;21.90;;;;;;;;;;5009310;28;20046;-86
2023/05/23 07:51:20;;;;;;;30.38;19.48;;;;;;;;;;4992685;28;20049;-82
2023/05/23 07:53:48;;;;;;;27.58;19.25;;;;;;;;;;5013455;28;20051;-84
2023/05/23 07:56:15;;;;;;;29.73;18.10;;;;;;;;;;5008503;28;20434;-81
2023/05/23 07:58:42;;;;;;;27.55;17.83;;;;;;;;;;5010959;28;20084;-86
2023/05/23 08:01:09;;;;;;;28.83;18.20;;;;;;;;;;4993601;28;20370;-85
2023/05/23 08:03:58;;;;;;;30.25;20.02;;;;;;;;;;5007300;28;20125;-81
2023/05/23 08:06:32;;;;;;;28.52;19.27;;;;;;;;;;5011239;28;20140;-82
2023/05/23 08:09:05;;;;;;;30.13;19.77;;;;;;;;;;5010179;28;20046;-81
2023/05/23 08:11:37;;;;;;;30.33;20.02;;;;;;;;;;4996041;28;20263;-82
2023/05/23 08:14:04;;;;;;;31.33;20.35;;;;;;;;;;5011254;28;20042;-80
2023/05/23 08:16:46;;;;;;;30.27;19.02;;;;;;;;;;4997519;28;20453;-83
2023/05/23 08:19:21;;;;;;;30.08;19.85;;;;;;;;;;5010995;28;20605;-80
2023/05/23 08:21:49;;;;;;;40.10;20.63;;;;;;;;;;4993734;28;20046;-82
2023/05/23 08:24:16;;;;;;;33.80;21.85;;;;;;;;;;5010501;28;20069;-83
2023/05/23 08:26:43;;;;;;;30.85;21.08;;;;;;;;;;4992813;28;20165;-83
2023/05/23 08:29:12;;;;;;;33.20;21.45;;;;;;;;;;5010422;28;20038;-84
2023/05/23 08:31:40;;;;;;;34.83;24.42;;;;;;;;;;5010707;28;20057;-84
2023/05/23 08:34:08;;;;;;;42.55;24.83;;;;;;;;;;5009473;28;20041;-85
2023/05/23 08:36:38;;;;;;;41.30;24.98;;;;;;;;;;5010398;28;20133;-84
2023/05/23 08:39:07;;;;;;;38.35;24.50;;;;;;;;;;5010857;28;20459;-85
2023/05/23 08:41:39;;;;;;;39.17;23.92;;;;;;;;;;5011254;28;20560;-87
2023/05/23 08:44:09;;;;;;;41.28;24.23;;;;;;;;;;5011680;28;20034;-85
2023/05/23 08:46:44;;;;;;;44.58;24.52;;;;;;;;;;5008704;28;20096;-86
2023/05/23 08:49:21;;;;;;;43.78;24.35;;;;;;;;;;4992225;28;20045;-84
2023/05/23 08:51:50;;;;;;;38.03;22.95;;;;;;;;;;4990419;28;20105;-85
2023/05/23 08:54:21;;;;;;;38.33;21.95;;;;;;;;;;4990508;28;20054;-84
2023/05/23 08:56:47;;;;;;;36.17;20.65;;;;;;;;;;4990432;28;20038;-86
2023/05/23 08:59:14;;;;;;;34.22;19.73;;;;;;;;;;5008852;28;20053;-85
2023/05/23 09:01:42;;;;;;;31.75;19.60;;;;;;;;;;4989823;28;20118;-84
2023/05/23 09:04:11;;;;;;;33.05;19.33;;;;;;;;;;5008097;28;20053;-85
2023/05/23 09:07:04;;;;;;;30.90;18.05;;;;;;;;;;5012503;28;20049;-86
2023/05/23 09:09:32;;;;;;;27.83;17.02;;;;;;;;;;5009552;28;20120;-85
2023/05/23 09:12:02;;;;;;;30.13;16.92;;;;;;;;;;4996240;28;20050;-82
2023/05/23 09:14:30;;;;;;;27.15;16.95;;;;;;;;;;4991565;28;20109;-84
2023/05/23 09:17:01;;;;;;;27.60;16.55;;;;;;;;;;5008469;28;20049;-82
2023/05/23 09:19:30;;;;;;;29.30;17.00;;;;;;;;;;5006575;28;20497;-85
2023/05/23 09:22:13;;;;;;;22.75;14.90;;;;;;;;;;4992526;28;20103;-83
2023/05/23 09:24:57;;;;;;;21.80;13.57;;;;;;;;;;5006956;28;20049;-84
2023/05/23 09:27:25;;;;;;;21.90;13.30;;;;;;;;;;5008579;28;20479;-85
2023/05/23 09:29:52;;;;;;;20.33;14.00;;;;;;;;;;5011235;28;20049;-82
2023/05/23 09:32:20;;;;;;;22.23;13.45;;;;;;;;;;5021389;28;20048;-83
2023/05/23 09:35:01;;;;;;;19.42;12.90;;;;;;;;;;5010762;28;20145;-86
2023/05/23 09:37:28;;;;;;;21.15;13.35;;;;;;;;;;5010402;28;20524;-85
2023/05/23 09:39:56;;;;;;;19.73;12.77;;;;;;;;;;5009358;28;20050;-84
2023/05/23 09:42:22;;;;;;;19.45;12.38;;;;;;;;;;5010904;28;20066;-83
2023/05/23 09:44:49;;;;;;;19.77;12.80;;;;;;;;;;5006890;28;20216;-82
2023/05/23 09:47:16;;;;;;;19.60;12.93;;;;;;;;;;4991391;28;20096;-83
2023/05/23 09:49:43;;;;;;;22.73;13.43;;;;;;;;;;5005414;28;20115;-84
2023/05/23 09:52:11;;;;;;;20.00;12.90;;;;;;;;;;5006111;28;20049;-83
2023/05/23 09:54:38;;;;;;;18.08;12.25;;;;;;;;;;5006944;28;20466;-82
2023/05/23 09:57:08;;;;;;;18.42;11.35;;;;;;;;;;5007939;28;20121;-83
2023/05/23 09:59:40;;;;;;;24.67;12.50;;;;;;;;;;5006787;28;20148;-81
2023/05/23 10:02:10;;;;;;;19.30;11.60;;;;;;;;;;5007324;28;20050;-83
2023/05/23 10:04:38;;;;;;;23.80;12.15;;;;;;;;;;5005884;28;20069;-81
2023/05/23 10:07:16;;;;;;;20.67;12.27;;;;;;;;;;5008644;28;20080;-81
2023/05/23 10:09:46;;;;;;;17.83;11.27;;;;;;;;;;5008154;28;20521;-84
2023/05/23 10:12:18;;;;;;;16.83;11.55;;;;;;;;;;4994259;28;20046;-81
2023/05/23 10:14:50;;;;;;;19.00;10.85;;;;;;;;;;5018163;28;20046;-84
2023/05/23 10:17:18;;;;;;;20.10;11.05;;;;;;;;;;5014862;28;20046;-83
2023/05/23 10:19:50;;;;;;;16.27;9.63;;;;;;;;;;4993553;28;20042;-85
2023/05/23 10:22:18;;;;;;;16.40;10.20;;;;;;;;;;5013498;28;20056;-85
2023/05/23 10:24:47;;;;;;;15.30;8.95;;;;;;;;;;5003909;28;20129;-83
2023/05/23 10:27:14;;;;;;;13.80;9.13;;;;;;;;;;5002812;28;20046;-84
2023/05/23 10:29:40;;;;;;;11.32;8.02;;;;;;;;;;5017559;28;20050;-83
2023/05/23 10:32:08;;;;;;;11.88;7.60;;;;;;;;;;5008786;28;20678;-86
2023/05/23 10:34:56;;;;;;;14.13;7.63;;;;;;;;;;5012736;28;20081;-82
2023/05/23 10:37:28;;;;;;;11.55;7.32;;;;;;;;;;5013680;28;20049;-81
2023/05/23 10:39:57;;;;;;;12.88;6.78;;;;;;;;;;5012266;28;20053;-83
2023/05/23 10:42:34;;;;;;;9.75;6.30;;;;;;;;;;5011085;28;20052;-82
2023/05/23 10:45:15;;;;;;;9.32;5.47;;;;;;;;;;5011230;28;20104;-84
2023/05/23 10:47:42;;;;;;;9.30;5.55;;;;;;;;;;5010082;28;20133;-83
2023/05/23 10:50:13;;;;;;;6.75;4.63;;;;;;;;;;5008671;28;20041;-82
2023/05/23 10:52:40;;;;;;;9.93;4.85;;;;;;;;;;5011430;28;20046;-84
2023/05/23 10:55:16;;;;;;;8.90;4.45;;;;;;;;;;5011891;28;20050;-86
2023/05/23 10:57:43;;;;;;;7.15;4.20;;;;;;;;;;5013642;28;20056;-84
2023/05/23 11:00:16;;;;;;;6.97;4.25;;;;;;;;;;4997228;28;20502;-87
2023/05/23 11:02:56;;;;;;;6.88;4.53;;;;;;;;;;5013264;28;20064;-82
2023/05/23 11:05:23;;;;;;;5.95;3.88;;;;;;;;;;5012458;28;20092;-82
2023/05/23 11:08:16;;;;;;;5.82;3.72;;;;;;;;;;5014028;28;20077;-83
2023/05/23 11:10:54;;;;;;;10.18;4.68;;;;;;;;;;4996819;28;20116;-85
2023/05/23 11:13:21;;;;;;;6.10;4.35;;;;;;;;;;4997878;28;20057;-82
2023/05/23 11:15:48;;;;;;;6.68;4.28;;;;;;;;;;5017516;28;20068;-84
2023/05/23 11:18:25;;;;;;;7.70;4.53;;;;;;;;;;5018709;28;20053;-81
2023/05/23 11:20:53;;;;;;;7.43;4.50;;;;;;;;;;4996865;28;20145;-87
2023/05/23 11:23:20;;;;;;;6.57;4.20;;;;;;;;;;4997999;28;20046;-83
2023/05/23 11:25:48;;;;;;;8.00;4.32;;;;;;;;;;4997710;28;20054;-88
2023/05/23 11:28:16;;;;;;;6.75;4.25;;;;;;;;;;5012911;28;20084;-84
2023/05/23 11:30:43;;;;;;;8.60;4.30;;;;;;;;;;4986255;28;20046;-86
2023/05/23 11:33:13;;;;;;;6.85;4.35;;;;;;;;;;5011497;28;20077;-86
2023/05/23 11:35:40;;;;;;;6.65;4.10;;;;;;;;;;4990012;28;20045;-88
2023/05/23 11:38:07;;;;;;;6.95;4.18;;;;;;;;;;5000025;28;20110;-84
2023/05/23 11:40:34;;;;;;;8.82;4.65;;;;;;;;;;5015186;28;20061;-86
2023/05/23 11:43:03;;;;;;;9.35;4.13;;;;;;;;;;5014294;28;20055;-84
2023/05/23 11:45:33;;;;;;;7.65;4.85;;;;;;;;;;4996805;28;20045;-84
2023/05/23 11:48:10;;;;;;;7.53;4.90;;;;;;;;;;5017369;28;20046;-85
2023/05/23 11:50:50;;;;;;;6.25;4.28;;;;;;;;;;5014194;28;20048;-87
2023/05/23 11:53:19;;;;;;;13.07;4.82;;;;;;;;;;5011967;28;20046;-83
2023/05/23 11:55:51;;;;;;;6.32;4.35;;;;;;;;;;5026568;28;20560;-85
2023/05/23 11:58:19;;;;;;;7.00;4.03;;;;;;;;;;5015331;28;20076;-85
2023/05/23 12:00:46;;;;;;;5.18;3.92;;;;;;;;;;5011861;28;20413;-85
2023/05/23 12:03:12;;;;;;;7.00;4.18;;;;;;;;;;5001049;28;20042;-84
2023/05/23 12:05:41;;;;;;;5.20;3.60;;;;;;;;;;5021018;28;20050;-81
2023/05/23 12:08:14;;;;;;;7.30;3.63;;;;;;;;;;4998423;28;20046;-81
2023/05/23 12:10:51;;;;;;;8.05;3.97;;;;;;;;;;4998598;28;20057;-85
2023/05/23 12:13:18;;;;;;;7.78;4.20;;;;;;;;;;5012850;28;20526;-82
2023/05/23 12:15:46;;;;;;;8.60;3.90;;;;;;;;;;5009449;28;20053;-83
2023/05/23 12:18:15;;;;;;;6.75;3.90;;;;;;;;;;5013543;28;20057;-83
2023/05/23 12:20:41;;;;;;;12.73;4.38;;;;;;;;;;5007755;28;20108;-84
2023/05/23 12:23:16;;;;;;;8.57;3.95;;;;;;;;;;5009230;28;20132;-81
2023/05/23 12:25:43;;;;;;;7.28;3.70;;;;;;;;;;5008839;28;20042;-82
2023/05/23 12:28:12;;;;;;;7.13;3.72;;;;;;;;;;5012005;28;20057;-85
2023/05/23 12:30:42;;;;;;;6.40;3.90;;;;;;;;;;5009592;28;20046;-85
2023/05/23 12:33:09;;;;;;;5.38;3.78;;;;;;;;;;5013428;28;20049;-85
2023/05/23 12:35:35;;;;;;;4.88;3.28;;;;;;;;;;5010780;28;20056;-82
2023/05/23 12:38:05;;;;;;;6.82;3.17;;;;;;;;;;5009596;28;20068;-83
2023/05/23 12:40:32;;;;;;;3.90;2.65;;;;;;;;;;5006497;28;20054;-84
2023/05/23 12:42:59;;;;;;;4.75;3.17;;;;;;;;;;5008727;28;20553;-82
2023/05/23 12:45:32;;;;;;;7.57;2.90;;;;;;;;;;5010406;28;20506;-85
2023/05/23 12:48:00;;;;;;;5.28;2.97;;;;;;;;;;4992559;28;20103;-86
2023/05/23 12:50:27;;;;;;;5.13;3.33;;;;;;;;;;5006337;28;20074;-85
2023/05/23 12:52:54;;;;;;;6.55;3.08;;;;;;;;;;5009915;28;20511;-85
2023/05/23 12:55:21;;;;;;;5.65;3.13;;;;;;;;;;4991699;28;20052;-88
2023/05/23 12:57:48;;;;;;;9.35;3.58;;;;;;;;;;5008530;28;20042;-85
2023/05/23 13:00:18;;;;;;;8.88;4.05;;;;;;;;;;5007874;28;20041;-84
2023/05/23 13:02:45;;;;;;;7.88;4.13;;;;;;;;;;5011694;28;20046;-82
2023/05/23 13:05:12;;;;;;;5.78;4.30;;;;;;;;;;5012751;28;20426;-82
2023/05/23 13:07:38;;;;;;;7.68;4.07;;;;;;;;;;5009677;28;20518;-82
2023/05/23 13:10:05;;;;;;;6.50;4.20;;;;;;;;;;5007255;28;20042;-83
2023/05/23 13:12:33;;;;;;;8.40;3.92;;;;;;;;;;4993213;28;20042;-82
2023/05/23 13:14:59;;;;;;;4.90;3.90;;;;;;;;;;5010677;28;20045;-83
2023/05/23 13:17:26;;;;;;;8.38;4.25;;;;;;;;;;5008776;28;20049;-81
2023/05/23 13:19:53;;;;;;;5.70;4.40;;;;;;;;;;5006899;28;20461;-81
2023/05/23 13:22:19;;;;;;;7.43;4.90;;;;;;;;;;5007139;28;20049;-82
2023/05/23 13:24:46;;;;;;;5.63;4.13;;;;;;;;;;4991199;28;20038;-85
2023/05/23 13:27:15;;;;;;;8.90;4.68;;;;;;;;;;5011601;28;20096;-86
2023/05/23 13:29:41;;;;;;;4.70;3.83;;;;;;;;;;5013523;28;20046;-83
2023/05/23 13:32:08;;;;;;;8.45;3.63;;;;;;;;;;5016988;28;20070;-85
2023/05/23 13:34:36;;;;;;;5.45;3.83;;;;;;;;;;5027053;28;20339;-84
2023/05/23 13:37:03;;;;;;;9.57;4.57;;;;;;;;;;5031495;28;20075;-85
2023/05/23 13:39:30;;;;;;;5.80;4.40;;;;;;;;;;5012702;28;20447;-84
2023/05/23 13:41:56;;;;;;;9.77;4.60;;;;;;;;;;5029471;28;20041;-84
2023/05/23 13:44:23;;;;;;;6.55;4.93;;;;;;;;;;5026581;28;20038;-82
2023/05/23 13:46:50;;;;;;;7.85;4.88;;;;;;;;;;5025678;28;20064;-83
2023/05/23 13:49:16;;;;;;;12.82;5.13;;;;;;;;;;5025470;28;20540;-84
2023/05/23 13:51:43;;;;;;;6.38;5.45;;;;;;;;;;5027749;28;20393;-86
2023/05/23 13:54:10;;;;;;;10.43;5.35;;;;;;;;;;5030176;28;20047;-84
2023/05/23 13:56:38;;;;;;;5.35;4.07;;;;;;;;;;5013302;28;20041;-82
2023/05/23 13:59:05;;;;;;;3.97;3.08;;;;;;;;;;5031321;28;20071;-80
2023/05/23 14:01:31;;;;;;;4.57;2.90;;;;;;;;;;5014003;28;20124;-80
2023/05/23 14:03:58;;;;;;;4.47;3.20;;;;;;;;;;5014929;28;20050;-84
2023/05/23 14:06:25;;;;;;;4.05;2.95;;;;;;;;;;5001288;28;20069;-82
2023/05/23 14:08:51;;;;;;;6.40;3.40;;;;;;;;;;5010441;28;20049;-82
2023/05/23 14:11:18;;;;;;;4.65;3.08;;;;;;;;;;5010275;28;20413;-80
2023/05/23 14:13:45;;;;;;;4.95;3.45;;;;;;;;;;5003510;28;20103;-79
2023/05/23 14:16:11;;;;;;;6.50;3.70;;;;;;;;;;4987939;28;20711;-80
2023/05/23 14:18:38;;;;;;;5.32;3.63;;;;;;;;;;5011023;28;20049;-80
2023/05/23 14:21:05;;;;;;;5.25;3.78;;;;;;;;;;5008709;28;20517;-80
2023/05/23 14:23:31;;;;;;;5.00;3.58;;;;;;;;;;5011939;28;20490;-78
2023/05/23 14:25:58;;;;;;;6.13;3.97;;;;;;;;;;5009913;28;20050;-79
2023/05/23 14:28:24;;;;;;;7.90;4.88;;;;;;;;;;5012949;28;20046;-79
2023/05/23 14:30:51;;;;;;;10.90;6.38;;;;;;;;;;5012239;28;20917;-78
2023/05/23 14:33:18;;;;;;;12.65;6.88;;;;;;;;;;5010669;28;20046;-80